Swift Ace — C6XB8 — position and weather

sailwx.info

Track history (hours):
 
Tides and Currents Weather Stations Pressure Air Temp Water Temp Dewpoint Dewpoint Depression Visibility Wind Speed Wind Dir Waves Ship Positions

Swift Ace

Last reported at 2016-Feb-11 11:32 UTC. Time now 2016-Feb-12 14:08 UTC.
Position S 36°12' E 174°56'.

Length 200 m; draft 8.6 m.

Type: Cargo ship. MMSI: 310968322.

Date/timePositionNaut miles runAvg speedWind from/ knotsBaromVisibWave heightAir tempDewpointWater temp
2016-Feb-11 11:32S 36°12' E 174°56'1010.3
2016-Feb-11 10:33S 36°22' E 174°58'1010.3
2016-Feb-11 09:33S 36°32' E 174°59'1010.1
2016-Feb-11 08:33S 36°41' E 174°54'9 8.6
2016-Feb-11 07:33S 36°49' E 174°50'3 3.0
2016-Feb-11 06:30S 36°50' E 174°46'0 0.0
2016-Feb-11 05:30S 36°50' E 174°46'0 0.0
2016-Feb-11 04:24S 36°50' E 174°46'0 0.0
2016-Feb-11 03:30S 36°50' E 174°46'0 0.0
2016-Feb-11 02:30S 36°50' E 174°46'0 0.0
2016-Feb-11 01:30S 36°50' E 174°46'0 0.0
2016-Feb-11 00:30S 36°50' E 174°46'0 0.0
2016-Feb-10 23:30S 36°50' E 174°46'0 0.0
2016-Feb-10 22:30S 36°50' E 174°46'0 0.0
2016-Feb-10 21:30S 36°50' E 174°46'0 0.0
2016-Feb-10 20:30S 36°50' E 174°46'0 0.0
2016-Feb-10 19:30S 36°50' E 174°46'0 0.0
2016-Feb-10 18:30S 36°50' E 174°46'0 0.0
2016-Feb-10 17:30S 36°50' E 174°46'2 1.8
2016-Feb-10 16:33S 36°50' E 174°49'9 8.9
2016-Feb-10 15:34S 36°42' E 174°53'7 7.3
2016-Feb-10 14:34S 36°36' E 174°58'8 8.1
2016-Feb-10 13:34S 36°28' E 174°60'8 8.2
2016-Feb-10 12:34S 36°20' E 174°58'8 8.2
2016-Feb-10 11:32S 36°12' E 174°56'  
2016-Feb-05 13:33S 36°10' E 150°36'1616.1
2016-Feb-05 12:34S 36°26' E 150°31'1616.5
2016-Feb-05 11:33S 36°42' E 150°26'1716.6
2016-Feb-05 10:34S 36°57' E 150°19'1615.6
2016-Feb-05 09:33S 37°12' E 150°14'1615.5
2016-Feb-05 08:33S 37°27' E 150°09'1515.1
2016-Feb-05 07:34S 37°40' E 149°59'1615.5
2016-Feb-05 06:33S 37°50' E 149°43'1615.8
2016-Feb-05 05:33S 38°00' E 149°28'1616.0
2016-Feb-05 04:33S 38°11' E 149°13'1616.0
2016-Feb-05 03:33S 38°20' E 148°57'1616.2
2016-Feb-05 02:33S 38°31' E 148°41'1616.5
2016-Feb-05 01:33S 38°41' E 148°24'1716.8
2016-Feb-05 00:33S 38°50' E 148°06'3417.0
2016-Feb-04 22:32S 39°02' E 147°24'1616.7
2016-Feb-04 21:34S 39°07' E 147°05'1717.2
2016-Feb-04 20:33S 39°14' E 146°44'1716.9
2016-Feb-04 19:33S 39°17' E 146°22'1716.7
2016-Feb-04 18:33S 39°13' E 146°02'155 5.3
2016-Feb-03 13:19S 38°50' E 142°45'1317.1
2016-Feb-03 12:33S 38°47' E 142°28'1716.9
2016-Feb-03 11:32S 38°42' E 142°07'1717.0
2016-Feb-03 10:32S 38°38' E 141°46'  
Track history (hours):
 
Tides and Currents Weather Stations Pressure Air Temp Water Temp Dewpoint Dewpoint Depression Visibility Wind Speed Wind Dir Waves Ship Positions

Swift Ace

Last reported at 2016-Feb-11 11:32 UTC. Time now 2016-Feb-12 14:08 UTC.
Position S 36°12' E 174°56'.

Length 200 m; draft 8.6 m.

Type: Cargo ship. MMSI: 310968322.

Date/timePositionNaut miles runAvg speedWind from/ knotsBaromVisibWave heightAir tempDewpointWater temp
2016-Feb-11 11:32S 36°12' E 174°56'1010.3
2016-Feb-11 10:33S 36°22' E 174°58'1010.3
2016-Feb-11 09:33S 36°32' E 174°59'1010.1
2016-Feb-11 08:33S 36°41' E 174°54'9 8.6
2016-Feb-11 07:33S 36°49' E 174°50'3 3.0
2016-Feb-11 06:30S 36°50' E 174°46'0 0.0
2016-Feb-11 05:30S 36°50' E 174°46'0 0.0
2016-Feb-11 04:24S 36°50' E 174°46'0 0.0
2016-Feb-11 03:30S 36°50' E 174°46'0 0.0
2016-Feb-11 02:30S 36°50' E 174°46'0 0.0
2016-Feb-11 01:30S 36°50' E 174°46'0 0.0
2016-Feb-11 00:30S 36°50' E 174°46'0 0.0
2016-Feb-10 23:30S 36°50' E 174°46'0 0.0
2016-Feb-10 22:30S 36°50' E 174°46'0 0.0
2016-Feb-10 21:30S 36°50' E 174°46'0 0.0
2016-Feb-10 20:30S 36°50' E 174°46'0 0.0
2016-Feb-10 19:30S 36°50' E 174°46'0 0.0
2016-Feb-10 18:30S 36°50' E 174°46'0 0.0
2016-Feb-10 17:30S 36°50' E 174°46'2 1.8
2016-Feb-10 16:33S 36°50' E 174°49'9 8.9
2016-Feb-10 15:34S 36°42' E 174°53'7 7.3
2016-Feb-10 14:34S 36°36' E 174°58'8 8.1
2016-Feb-10 13:34S 36°28' E 174°60'8 8.2
2016-Feb-10 12:34S 36°20' E 174°58'8 8.2
2016-Feb-10 11:32S 36°12' E 174°56'  
2016-Feb-05 13:33S 36°10' E 150°36'1616.1
2016-Feb-05 12:34S 36°26' E 150°31'1616.5
2016-Feb-05 11:33S 36°42' E 150°26'1716.6
2016-Feb-05 10:34S 36°57' E 150°19'1615.6
2016-Feb-05 09:33S 37°12' E 150°14'1615.5
2016-Feb-05 08:33S 37°27' E 150°09'1515.1
2016-Feb-05 07:34S 37°40' E 149°59'1615.5
2016-Feb-05 06:33S 37°50' E 149°43'1615.8
2016-Feb-05 05:33S 38°00' E 149°28'1616.0
2016-Feb-05 04:33S 38°11' E 149°13'1616.0
2016-Feb-05 03:33S 38°20' E 148°57'1616.2
2016-Feb-05 02:33S 38°31' E 148°41'1616.5
2016-Feb-05 01:33S 38°41' E 148°24'1716.8
2016-Feb-05 00:33S 38°50' E 148°06'3417.0
2016-Feb-04 22:32S 39°02' E 147°24'1616.7
2016-Feb-04 21:34S 39°07' E 147°05'1717.2
2016-Feb-04 20:33S 39°14' E 146°44'1716.9
2016-Feb-04 19:33S 39°17' E 146°22'1716.7
2016-Feb-04 18:33S 39°13' E 146°02'155 5.3
2016-Feb-03 13:19S 38°50' E 142°45'1317.1
2016-Feb-03 12:33S 38°47' E 142°28'1716.9
2016-Feb-03 11:32S 38°42' E 142°07'1717.0
2016-Feb-03 10:32S 38°38' E 141°46'  

Dump ship's entire track history